Martine P — 2FIL4 — position and weather

sailwx.info

Track history (hours):
 
Tides and Currents Weather Stations Pressure Air Temp Water Temp Dewpoint Dewpoint Depression Visibility Wind Speed Wind Dir Waves Ship Positions

Martine P

Last reported at 2014-Jul-06 14:25 UTC. Time now 2014-Sep-03 00:11 UTC.
Position N 51°21' E 003°11'.
Warning: this ship's position is 58 days out of date.

Length 27 m; draft 2.8 m.

Type: Tug. MMSI: 235091541.

Date/timePositionNaut miles runAvg speedWind from/ knotsBaromVisibWave heightAir tempDewpointWater temp
2014-Jul-06 14:25N 51°21' E 003°11'0 0.0
2014-Jul-06 13:31N 51°21' E 003°11'0 0.1
2014-Jul-06 12:33N 51°21' E 003°12'1 0.7
2014-Jul-06 11:30N 51°21' E 003°11'0 0.0
2014-Jul-06 08:17N 51°21' E 003°11'1 1.0
2014-Jul-06 07:33N 51°20' E 003°12'1 0.7
2014-Jul-06 06:29N 51°21' E 003°11'0 0.0
2014-Jul-06 05:33N 51°21' E 003°11'0 0.0
2014-Jul-06 04:31N 51°21' E 003°11'0 0.0
2014-Jul-06 03:20N 51°21' E 003°11'0 0.0
2014-Jul-06 01:33N 51°21' E 003°11'0 0.0
2014-Jul-05 23:25N 51°21' E 003°11'0 0.0
2014-Jul-05 20:28N 51°21' E 003°11'0 0.0
2014-Jul-05 19:29N 51°21' E 003°11'0 0.0
2014-Jul-05 18:24N 51°21' E 003°11'0 0.0
2014-Jul-05 17:26N 51°21' E 003°11'0 0.0
2014-Jul-05 16:15N 51°21' E 003°11'0 0.0
2014-Jul-05 15:23N 51°21' E 003°11'0 0.0
2014-Jul-05 14:25N 51°21' E 003°11'0 0.0
2014-Jul-05 13:25N 51°21' E 003°11'0 0.0
2014-Jul-05 12:29N 51°21' E 003°11'0 0.0
2014-Jul-05 08:33N 51°21' E 003°11'0 0.1
2014-Jul-05 06:33N 51°21' E 003°11'0 0.1
2014-Jul-05 05:30N 51°21' E 003°11'0 0.0
2014-Jul-05 04:31N 51°21' E 003°11'0 0.0
2014-Jul-05 03:33N 51°21' E 003°11'0 0.0
2014-Jul-05 02:32N 51°21' E 003°11'0 0.0
2014-Jul-05 01:33N 51°21' E 003°11'0 0.0
2014-Jul-05 00:33N 51°21' E 003°11'0 0.0
2014-Jul-04 23:29N 51°21' E 003°11'0 0.0
2014-Jul-04 22:33N 51°21' E 003°11'0 0.0
2014-Jul-04 21:33N 51°21' E 003°11'0 0.0
2014-Jul-04 20:32N 51°21' E 003°11'0 0.0
2014-Jul-04 19:32N 51°21' E 003°11'0 0.1
2014-Jul-04 18:33N 51°21' E 003°11'1 0.4
2014-Jul-04 16:32N 51°20' E 003°12'1 0.9
2014-Jul-04 15:31N 51°21' E 003°11'0 0.0
2014-Jul-04 14:27N 51°21' E 003°11'0 0.0
2014-Jul-04 10:24N 51°21' E 003°11'0 0.0
2014-Jul-04 09:29N 51°21' E 003°11'0 0.0
2014-Jul-04 08:27N 51°21' E 003°11'0 0.0
2014-Jul-04 07:21N 51°21' E 003°11'0 0.1
2014-Jul-04 06:28N 51°21' E 003°11'0 0.0
2014-Jul-04 05:32N 51°21' E 003°11'0 0.0
2014-Jul-04 04:19N 51°21' E 003°11'0 0.1
2014-Jul-04 03:33N 51°21' E 003°11'0 0.0
2014-Jul-04 02:22N 51°21' E 003°11'0 0.0
2014-Jul-04 01:33N 51°21' E 003°11'0 0.0
2014-Jul-04 00:33N 51°21' E 003°11'0 0.0
2014-Jul-03 23:32N 51°21' E 003°11'0 0.0
2014-Jul-03 22:32N 51°21' E 003°11'0 0.0
2014-Jul-03 21:31N 51°21' E 003°11'0 0.0
2014-Jul-03 20:20N 51°21' E 003°11'0 0.0
2014-Jul-03 19:33N 51°21' E 003°11'0 0.0
2014-Jul-03 18:33N 51°21' E 003°11'4 4.1
2014-Jul-03 17:33N 51°24' E 003°08'5 4.6
2014-Jul-03 16:33N 51°28' E 003°03'7 7.1
2014-Jul-03 15:33N 51°33' E 003°11'8 8.2
2014-Jul-03 14:33N 51°41' E 003°13'9 9.1
2014-Jul-03 13:33N 51°50' E 003°17'10 9.5
2014-Jul-03 12:33N 51°59' E 003°24'8 8.1
2014-Jul-03 11:33N 52°03' E 003°35'9 9.0
2014-Jul-03 10:33N 52°02' E 003°49'9 8.9
2014-Jul-03 09:33N 51°59' E 004°03'8 8.4
2014-Jul-03 08:33N 51°55' E 004°15'0 0.4
2014-Jul-03 07:32N 51°55' E 004°15'0 0.3
2014-Jul-03 06:32N 51°55' E 004°15'0 0.0
2014-Jul-03 05:32N 51°55' E 004°15'0 0.0
2014-Jul-03 04:29N 51°55' E 004°15'0 0.0
2014-Jul-03 03:32N 51°55' E 004°15'0 0.0
2014-Jul-03 02:32N 51°55' E 004°15'0 0.0
2014-Jul-03 01:26N 51°55' E 004°15'0 0.0
2014-Jul-03 00:32N 51°55' E 004°15'0 0.0
2014-Jul-02 23:32N 51°55' E 004°15'0 0.0
2014-Jul-02 22:32N 51°55' E 004°15'0 0.0
2014-Jul-02 21:32N 51°55' E 004°15'0 0.0
2014-Jul-02 20:32N 51°55' E 004°15'5 4.7
2014-Jul-02 19:33N 51°54' E 004°22'6 6.1
2014-Jul-02 18:33N 51°54' E 004°32'6 6.0
2014-Jul-02 17:33N 51°51' E 004°40'7 7.0
2014-Jul-02 16:34N 51°49' E 004°51'0 0.3
2014-Jul-02 15:31N 51°49' E 004°52'0 0.0
2014-Jul-02 14:31N 51°49' E 004°52'0 0.0
2014-Jul-02 13:31N 51°49' E 004°52'0 0.0
2014-Jul-02 12:31N 51°49' E 004°52'0 0.0
2014-Jul-02 11:31N 51°49' E 004°52'0 0.0
2014-Jul-02 10:28N 51°49' E 004°52'0 0.0
2014-Jul-02 09:31N 51°49' E 004°52'0 0.0
2014-Jul-02 08:31N 51°49' E 004°52'0 0.0
2014-Jul-02 07:31N 51°49' E 004°52'0 0.0
2014-Jul-02 06:31N 51°49' E 004°52'0 0.0
2014-Jul-02 05:31N 51°49' E 004°52'0 0.0
2014-Jul-02 04:31N 51°49' E 004°52'0 0.0
2014-Jul-02 03:31N 51°49' E 004°51'0 0.0
2014-Jul-02 02:31N 51°49' E 004°51'0 0.0
2014-Jul-02 01:28N 51°49' E 004°51'0 0.0
2014-Jul-02 00:31N 51°49' E 004°51'0 0.0
2014-Jul-01 23:31N 51°49' E 004°52'0 0.0
2014-Jul-01 22:31N 51°49' E 004°52'0 0.0
2014-Jul-01 21:28N 51°49' E 004°51'0 0.0
2014-Jul-01 20:31N 51°49' E 004°52'0 0.0
2014-Jul-01 19:31N 51°49' E 004°52'0 0.0
2014-Jul-01 18:28N 51°49' E 004°52'0 0.0
2014-Jul-01 17:31N 51°49' E 004°51'0 0.0
2014-Jul-01 16:31N 51°49' E 004°51'0 0.0
2014-Jul-01 15:28N 51°49' E 004°52'0 0.0
2014-Jul-01 14:31N 51°49' E 004°51'0 0.0
2014-Jul-01 13:31N 51°49' E 004°52'0 0.0
2014-Jul-01 12:31N 51°49' E 004°52'0 0.0
2014-Jul-01 11:31N 51°49' E 004°51'0 0.0
2014-Jul-01 10:31N 51°49' E 004°52'0 0.0
2014-Jul-01 09:31N 51°49' E 004°52'0 0.0
2014-Jul-01 08:31N 51°49' E 004°51'0 0.0
2014-Jul-01 07:31N 51°49' E 004°51'0 0.0
2014-Jul-01 06:31N 51°49' E 004°51'0 0.0
2014-Jul-01 05:31N 51°49' E 004°52'0 0.0
2014-Jul-01 04:31N 51°49' E 004°51'0 0.0
2014-Jul-01 03:31N 51°49' E 004°51'0 0.0
2014-Jul-01 02:31N 51°49' E 004°52'0 0.0
2014-Jul-01 01:31N 51°49' E 004°51'0 0.0
2014-Jul-01 00:31N 51°49' E 004°51'0 0.0
2014-Jun-30 23:31N 51°49' E 004°51'0 0.0
2014-Jun-30 22:31N 51°49' E 004°52'0 0.0
2014-Jun-30 21:31N 51°49' E 004°52'0 0.0
2014-Jun-30 20:28N 51°49' E 004°51'0 0.0
2014-Jun-30 19:31N 51°49' E 004°52'0 0.0
2014-Jun-30 18:31N 51°49' E 004°51'0 0.0
2014-Jun-30 17:31N 51°49' E 004°52'0 0.0
2014-Jun-30 16:28N 51°49' E 004°51'0 0.0
2014-Jun-30 15:28N 51°49' E 004°52'0 0.0
2014-Jun-30 14:31N 51°49' E 004°52'0 0.0
2014-Jun-30 13:28N 51°49' E 004°52'0 0.0
2014-Jun-30 12:31N 51°49' E 004°52'0 0.0
2014-Jun-30 11:28N 51°49' E 004°52'0 0.0
2014-Jun-30 10:31N 51°49' E 004°51'0 0.0
2014-Jun-30 09:28N 51°49' E 004°52'0 0.0
2014-Jun-30 08:28N 51°49' E 004°51'0 0.0
2014-Jun-30 07:31N 51°49' E 004°51'0 0.0
2014-Jun-30 06:31N 51°49' E 004°51'0 0.0
2014-Jun-30 05:28N 51°49' E 004°51'0 0.0
2014-Jun-30 04:31N 51°49' E 004°51'0 0.0
2014-Jun-30 03:31N 51°49' E 004°52'0 0.0
2014-Jun-30 02:31N 51°49' E 004°52'0 0.0
2014-Jun-30 01:31N 51°49' E 004°52'0 0.0
2014-Jun-30 00:25N 51°49' E 004°52'0 0.0
2014-Jun-29 23:31N 51°49' E 004°51'0 0.0
2014-Jun-29 22:31N 51°49' E 004°51'0 0.0
2014-Jun-29 21:31N 51°49' E 004°51'0 0.0
2014-Jun-29 20:31N 51°49' E 004°52'0 0.0
2014-Jun-29 19:31N 51°49' E 004°52'0 0.0
2014-Jun-29 18:31N 51°49' E 004°52'0 0.0
2014-Jun-29 17:31N 51°49' E 004°52'0 0.0
2014-Jun-29 16:31N 51°49' E 004°51'0 0.0
2014-Jun-29 15:28N 51°49' E 004°52'0 0.0
2014-Jun-29 14:31N 51°49' E 004°52'0 0.0
2014-Jun-29 13:31N 51°49' E 004°52'0 0.0
2014-Jun-29 12:28N 51°49' E 004°51'0 0.0
2014-Jun-29 11:31N 51°49' E 004°51'0 0.0
2014-Jun-29 10:31N 51°49' E 004°52'0 0.0
2014-Jun-29 09:31N 51°49' E 004°52'0 0.0
2014-Jun-29 08:31N 51°49' E 004°52'0 0.0
2014-Jun-29 07:31N 51°49' E 004°51'0 0.0
2014-Jun-29 06:31N 51°49' E 004°52'0 0.0
2014-Jun-29 05:31N 51°49' E 004°52'0 0.0
2014-Jun-29 04:31N 51°49' E 004°51'0 0.0
2014-Jun-29 03:31N 51°49' E 004°52'0 0.0
2014-Jun-29 02:31N 51°49' E 004°51'0 0.0
2014-Jun-29 01:31N 51°49' E 004°52'0 0.0
2014-Jun-29 00:31N 51°49' E 004°51'0 0.0
2014-Jun-28 23:31N 51°49' E 004°52'0 0.0
2014-Jun-28 22:31N 51°49' E 004°52'0 0.0
2014-Jun-28 21:31N 51°49' E 004°51'0 0.0
2014-Jun-28 20:31N 51°49' E 004°51'0 0.0
2014-Jun-28 19:31N 51°49' E 004°51'0 0.0
2014-Jun-28 18:31N 51°49' E 004°51'0 0.0
2014-Jun-28 17:28N 51°49' E 004°51'0 0.0
2014-Jun-28 16:31N 51°49' E 004°51'0 0.0
2014-Jun-28 15:31N 51°49' E 004°51'0 0.0
2014-Jun-28 14:31N 51°49' E 004°52'0 0.0
2014-Jun-28 13:31N 51°49' E 004°51'0 0.0
2014-Jun-28 12:31N 51°49' E 004°51'0 0.0
2014-Jun-28 11:28N 51°49' E 004°52'0 0.0
2014-Jun-28 10:31N 51°49' E 004°52'0 0.0
2014-Jun-28 09:31N 51°49' E 004°52'0 0.0
2014-Jun-28 08:31N 51°49' E 004°52'0 0.0
2014-Jun-28 07:31N 51°49' E 004°52'0 0.0
2014-Jun-28 06:31N 51°49' E 004°52'0 0.0
2014-Jun-28 05:28N 51°49' E 004°52'0 0.0
2014-Jun-28 04:31N 51°49' E 004°52'0 0.0
2014-Jun-28 03:31N 51°49' E 004°52'0 0.0
2014-Jun-28 02:31N 51°49' E 004°52'0 0.0
2014-Jun-28 01:31N 51°49' E 004°52'0 0.0
2014-Jun-28 00:31N 51°49' E 004°51'0 0.0
2014-Jun-27 23:28N 51°49' E 004°51'0 0.0
2014-Jun-27 22:28N 51°49' E 004°52'0 0.0
2014-Jun-27 21:31N 51°49' E 004°52'0 0.0
2014-Jun-27 20:31N 51°49' E 004°51'0 0.0
2014-Jun-27 19:31N 51°49' E 004°52'0 0.0
2014-Jun-27 18:31N 51°49' E 004°51'0 0.0
2014-Jun-27 17:28N 51°49' E 004°52'0 0.0
2014-Jun-27 16:31N 51°49' E 004°51'0 0.0
2014-Jun-27 15:31N 51°49' E 004°51'0 0.0
2014-Jun-27 14:28N 51°49' E 004°52'0 0.0
2014-Jun-27 13:28N 51°49' E 004°52'0 0.0
2014-Jun-27 12:31N 51°49' E 004°51'0 0.0
2014-Jun-27 11:31N 51°49' E 004°51'0 0.0
2014-Jun-27 10:31N 51°49' E 004°52'0 0.0
2014-Jun-27 09:31N 51°49' E 004°51'0 0.0
2014-Jun-27 08:28N 51°49' E 004°51'0 0.0
2014-Jun-27 07:31N 51°49' E 004°51'0 0.0
2014-Jun-27 06:28N 51°49' E 004°52'0 0.0
2014-Jun-27 05:31N 51°49' E 004°51'0 0.0
2014-Jun-27 04:31N 51°49' E 004°51'0 0.0
2014-Jun-27 03:31N 51°49' E 004°51'0 0.0
2014-Jun-27 02:28N 51°49' E 004°51'0 0.0
2014-Jun-27 01:31N 51°49' E 004°51'0 0.0
2014-Jun-27 00:31N 51°49' E 004°51'0 0.0
2014-Jun-26 23:31N 51°49' E 004°52'0 0.0
2014-Jun-26 22:31N 51°49' E 004°51'0 0.0
2014-Jun-26 21:31N 51°49' E 004°52'0 0.0
2014-Jun-26 20:31N 51°49' E 004°51'0 0.0
2014-Jun-26 19:31N 51°49' E 004°51'0 0.0
2014-Jun-26 18:31N 51°49' E 004°52'0 0.0
2014-Jun-26 17:28N 51°49' E 004°52'0 0.0
2014-Jun-26 16:31N 51°49' E 004°51'0 0.0
2014-Jun-26 15:31N 51°49' E 004°52'0 0.2
2014-Jun-26 14:28N 51°49' E 004°51'  
Track history (hours):
 
Tides and Currents Weather Stations Pressure Air Temp Water Temp Dewpoint Dewpoint Depression Visibility Wind Speed Wind Dir Waves Ship Positions

Martine P

Last reported at 2014-Jul-06 14:25 UTC. Time now 2014-Sep-03 00:11 UTC.
Position N 51°21' E 003°11'.
Warning: this ship's position is 58 days out of date.

Length 27 m; draft 2.8 m.

Type: Tug. MMSI: 235091541.

Date/timePositionNaut miles runAvg speedWind from/ knotsBaromVisibWave heightAir tempDewpointWater temp
2014-Jul-06 14:25N 51°21' E 003°11'0 0.0
2014-Jul-06 13:31N 51°21' E 003°11'0 0.1
2014-Jul-06 12:33N 51°21' E 003°12'1 0.7
2014-Jul-06 11:30N 51°21' E 003°11'0 0.0
2014-Jul-06 08:17N 51°21' E 003°11'1 1.0
2014-Jul-06 07:33N 51°20' E 003°12'1 0.7
2014-Jul-06 06:29N 51°21' E 003°11'0 0.0
2014-Jul-06 05:33N 51°21' E 003°11'0 0.0
2014-Jul-06 04:31N 51°21' E 003°11'0 0.0
2014-Jul-06 03:20N 51°21' E 003°11'0 0.0
2014-Jul-06 01:33N 51°21' E 003°11'0 0.0
2014-Jul-05 23:25N 51°21' E 003°11'0 0.0
2014-Jul-05 20:28N 51°21' E 003°11'0 0.0
2014-Jul-05 19:29N 51°21' E 003°11'0 0.0
2014-Jul-05 18:24N 51°21' E 003°11'0 0.0
2014-Jul-05 17:26N 51°21' E 003°11'0 0.0
2014-Jul-05 16:15N 51°21' E 003°11'0 0.0
2014-Jul-05 15:23N 51°21' E 003°11'0 0.0
2014-Jul-05 14:25N 51°21' E 003°11'0 0.0
2014-Jul-05 13:25N 51°21' E 003°11'0 0.0
2014-Jul-05 12:29N 51°21' E 003°11'0 0.0
2014-Jul-05 08:33N 51°21' E 003°11'0 0.1
2014-Jul-05 06:33N 51°21' E 003°11'0 0.1
2014-Jul-05 05:30N 51°21' E 003°11'0 0.0
2014-Jul-05 04:31N 51°21' E 003°11'0 0.0
2014-Jul-05 03:33N 51°21' E 003°11'0 0.0
2014-Jul-05 02:32N 51°21' E 003°11'0 0.0
2014-Jul-05 01:33N 51°21' E 003°11'0 0.0
2014-Jul-05 00:33N 51°21' E 003°11'0 0.0
2014-Jul-04 23:29N 51°21' E 003°11'0 0.0
2014-Jul-04 22:33N 51°21' E 003°11'0 0.0
2014-Jul-04 21:33N 51°21' E 003°11'0 0.0
2014-Jul-04 20:32N 51°21' E 003°11'0 0.0
2014-Jul-04 19:32N 51°21' E 003°11'0 0.1
2014-Jul-04 18:33N 51°21' E 003°11'1 0.4
2014-Jul-04 16:32N 51°20' E 003°12'1 0.9
2014-Jul-04 15:31N 51°21' E 003°11'0 0.0
2014-Jul-04 14:27N 51°21' E 003°11'0 0.0
2014-Jul-04 10:24N 51°21' E 003°11'0 0.0
2014-Jul-04 09:29N 51°21' E 003°11'0 0.0
2014-Jul-04 08:27N 51°21' E 003°11'0 0.0
2014-Jul-04 07:21N 51°21' E 003°11'0 0.1
2014-Jul-04 06:28N 51°21' E 003°11'0 0.0
2014-Jul-04 05:32N 51°21' E 003°11'0 0.0
2014-Jul-04 04:19N 51°21' E 003°11'0 0.1
2014-Jul-04 03:33N 51°21' E 003°11'0 0.0
2014-Jul-04 02:22N 51°21' E 003°11'0 0.0
2014-Jul-04 01:33N 51°21' E 003°11'0 0.0
2014-Jul-04 00:33N 51°21' E 003°11'0 0.0
2014-Jul-03 23:32N 51°21' E 003°11'0 0.0
2014-Jul-03 22:32N 51°21' E 003°11'0 0.0
2014-Jul-03 21:31N 51°21' E 003°11'0 0.0
2014-Jul-03 20:20N 51°21' E 003°11'0 0.0
2014-Jul-03 19:33N 51°21' E 003°11'0 0.0
2014-Jul-03 18:33N 51°21' E 003°11'4 4.1
2014-Jul-03 17:33N 51°24' E 003°08'5 4.6
2014-Jul-03 16:33N 51°28' E 003°03'7 7.1
2014-Jul-03 15:33N 51°33' E 003°11'8 8.2
2014-Jul-03 14:33N 51°41' E 003°13'9 9.1
2014-Jul-03 13:33N 51°50' E 003°17'10 9.5
2014-Jul-03 12:33N 51°59' E 003°24'8 8.1
2014-Jul-03 11:33N 52°03' E 003°35'9 9.0
2014-Jul-03 10:33N 52°02' E 003°49'9 8.9
2014-Jul-03 09:33N 51°59' E 004°03'8 8.4
2014-Jul-03 08:33N 51°55' E 004°15'0 0.4
2014-Jul-03 07:32N 51°55' E 004°15'0 0.3
2014-Jul-03 06:32N 51°55' E 004°15'0 0.0
2014-Jul-03 05:32N 51°55' E 004°15'0 0.0
2014-Jul-03 04:29N 51°55' E 004°15'0 0.0
2014-Jul-03 03:32N 51°55' E 004°15'0 0.0
2014-Jul-03 02:32N 51°55' E 004°15'0 0.0
2014-Jul-03 01:26N 51°55' E 004°15'0 0.0
2014-Jul-03 00:32N 51°55' E 004°15'0 0.0
2014-Jul-02 23:32N 51°55' E 004°15'0 0.0
2014-Jul-02 22:32N 51°55' E 004°15'0 0.0
2014-Jul-02 21:32N 51°55' E 004°15'0 0.0
2014-Jul-02 20:32N 51°55' E 004°15'5 4.7
2014-Jul-02 19:33N 51°54' E 004°22'6 6.1
2014-Jul-02 18:33N 51°54' E 004°32'6 6.0
2014-Jul-02 17:33N 51°51' E 004°40'7 7.0
2014-Jul-02 16:34N 51°49' E 004°51'0 0.3
2014-Jul-02 15:31N 51°49' E 004°52'0 0.0
2014-Jul-02 14:31N 51°49' E 004°52'0 0.0
2014-Jul-02 13:31N 51°49' E 004°52'0 0.0
2014-Jul-02 12:31N 51°49' E 004°52'0 0.0
2014-Jul-02 11:31N 51°49' E 004°52'0 0.0
2014-Jul-02 10:28N 51°49' E 004°52'0 0.0
2014-Jul-02 09:31N 51°49' E 004°52'0 0.0
2014-Jul-02 08:31N 51°49' E 004°52'0 0.0
2014-Jul-02 07:31N 51°49' E 004°52'0 0.0
2014-Jul-02 06:31N 51°49' E 004°52'0 0.0
2014-Jul-02 05:31N 51°49' E 004°52'0 0.0
2014-Jul-02 04:31N 51°49' E 004°52'0 0.0
2014-Jul-02 03:31N 51°49' E 004°51'0 0.0
2014-Jul-02 02:31N 51°49' E 004°51'0 0.0
2014-Jul-02 01:28N 51°49' E 004°51'0 0.0
2014-Jul-02 00:31N 51°49' E 004°51'0 0.0
2014-Jul-01 23:31N 51°49' E 004°52'0 0.0
2014-Jul-01 22:31N 51°49' E 004°52'0 0.0
2014-Jul-01 21:28N 51°49' E 004°51'0 0.0
2014-Jul-01 20:31N 51°49' E 004°52'0 0.0
2014-Jul-01 19:31N 51°49' E 004°52'0 0.0
2014-Jul-01 18:28N 51°49' E 004°52'0 0.0
2014-Jul-01 17:31N 51°49' E 004°51'0 0.0
2014-Jul-01 16:31N 51°49' E 004°51'0 0.0
2014-Jul-01 15:28N 51°49' E 004°52'0 0.0
2014-Jul-01 14:31N 51°49' E 004°51'0 0.0
2014-Jul-01 13:31N 51°49' E 004°52'0 0.0
2014-Jul-01 12:31N 51°49' E 004°52'0 0.0
2014-Jul-01 11:31N 51°49' E 004°51'0 0.0
2014-Jul-01 10:31N 51°49' E 004°52'0 0.0
2014-Jul-01 09:31N 51°49' E 004°52'0 0.0
2014-Jul-01 08:31N 51°49' E 004°51'0 0.0
2014-Jul-01 07:31N 51°49' E 004°51'0 0.0
2014-Jul-01 06:31N 51°49' E 004°51'0 0.0
2014-Jul-01 05:31N 51°49' E 004°52'0 0.0
2014-Jul-01 04:31N 51°49' E 004°51'0 0.0
2014-Jul-01 03:31N 51°49' E 004°51'0 0.0
2014-Jul-01 02:31N 51°49' E 004°52'0 0.0
2014-Jul-01 01:31N 51°49' E 004°51'0 0.0
2014-Jul-01 00:31N 51°49' E 004°51'0 0.0
2014-Jun-30 23:31N 51°49' E 004°51'0 0.0
2014-Jun-30 22:31N 51°49' E 004°52'0 0.0
2014-Jun-30 21:31N 51°49' E 004°52'0 0.0
2014-Jun-30 20:28N 51°49' E 004°51'0 0.0
2014-Jun-30 19:31N 51°49' E 004°52'0 0.0
2014-Jun-30 18:31N 51°49' E 004°51'0 0.0
2014-Jun-30 17:31N 51°49' E 004°52'0 0.0
2014-Jun-30 16:28N 51°49' E 004°51'0 0.0
2014-Jun-30 15:28N 51°49' E 004°52'0 0.0
2014-Jun-30 14:31N 51°49' E 004°52'0 0.0
2014-Jun-30 13:28N 51°49' E 004°52'0 0.0
2014-Jun-30 12:31N 51°49' E 004°52'0 0.0
2014-Jun-30 11:28N 51°49' E 004°52'0 0.0
2014-Jun-30 10:31N 51°49' E 004°51'0 0.0
2014-Jun-30 09:28N 51°49' E 004°52'0 0.0
2014-Jun-30 08:28N 51°49' E 004°51'0 0.0
2014-Jun-30 07:31N 51°49' E 004°51'0 0.0
2014-Jun-30 06:31N 51°49' E 004°51'0 0.0
2014-Jun-30 05:28N 51°49' E 004°51'0 0.0
2014-Jun-30 04:31N 51°49' E 004°51'0 0.0
2014-Jun-30 03:31N 51°49' E 004°52'0 0.0
2014-Jun-30 02:31N 51°49' E 004°52'0 0.0
2014-Jun-30 01:31N 51°49' E 004°52'0 0.0
2014-Jun-30 00:25N 51°49' E 004°52'0 0.0
2014-Jun-29 23:31N 51°49' E 004°51'0 0.0
2014-Jun-29 22:31N 51°49' E 004°51'0 0.0
2014-Jun-29 21:31N 51°49' E 004°51'0 0.0
2014-Jun-29 20:31N 51°49' E 004°52'0 0.0
2014-Jun-29 19:31N 51°49' E 004°52'0 0.0
2014-Jun-29 18:31N 51°49' E 004°52'0 0.0
2014-Jun-29 17:31N 51°49' E 004°52'0 0.0
2014-Jun-29 16:31N 51°49' E 004°51'0 0.0
2014-Jun-29 15:28N 51°49' E 004°52'0 0.0
2014-Jun-29 14:31N 51°49' E 004°52'0 0.0
2014-Jun-29 13:31N 51°49' E 004°52'0 0.0
2014-Jun-29 12:28N 51°49' E 004°51'0 0.0
2014-Jun-29 11:31N 51°49' E 004°51'0 0.0
2014-Jun-29 10:31N 51°49' E 004°52'0 0.0
2014-Jun-29 09:31N 51°49' E 004°52'0 0.0
2014-Jun-29 08:31N 51°49' E 004°52'0 0.0
2014-Jun-29 07:31N 51°49' E 004°51'0 0.0
2014-Jun-29 06:31N 51°49' E 004°52'0 0.0
2014-Jun-29 05:31N 51°49' E 004°52'0 0.0
2014-Jun-29 04:31N 51°49' E 004°51'0 0.0
2014-Jun-29 03:31N 51°49' E 004°52'0 0.0
2014-Jun-29 02:31N 51°49' E 004°51'0 0.0
2014-Jun-29 01:31N 51°49' E 004°52'0 0.0
2014-Jun-29 00:31N 51°49' E 004°51'0 0.0
2014-Jun-28 23:31N 51°49' E 004°52'0 0.0
2014-Jun-28 22:31N 51°49' E 004°52'0 0.0
2014-Jun-28 21:31N 51°49' E 004°51'0 0.0
2014-Jun-28 20:31N 51°49' E 004°51'0 0.0
2014-Jun-28 19:31N 51°49' E 004°51'0 0.0
2014-Jun-28 18:31N 51°49' E 004°51'0 0.0
2014-Jun-28 17:28N 51°49' E 004°51'0 0.0
2014-Jun-28 16:31N 51°49' E 004°51'0 0.0
2014-Jun-28 15:31N 51°49' E 004°51'0 0.0
2014-Jun-28 14:31N 51°49' E 004°52'0 0.0
2014-Jun-28 13:31N 51°49' E 004°51'0 0.0
2014-Jun-28 12:31N 51°49' E 004°51'0 0.0
2014-Jun-28 11:28N 51°49' E 004°52'0 0.0
2014-Jun-28 10:31N 51°49' E 004°52'0 0.0
2014-Jun-28 09:31N 51°49' E 004°52'0 0.0
2014-Jun-28 08:31N 51°49' E 004°52'0 0.0
2014-Jun-28 07:31N 51°49' E 004°52'0 0.0
2014-Jun-28 06:31N 51°49' E 004°52'0 0.0
2014-Jun-28 05:28N 51°49' E 004°52'0 0.0
2014-Jun-28 04:31N 51°49' E 004°52'0 0.0
2014-Jun-28 03:31N 51°49' E 004°52'0 0.0
2014-Jun-28 02:31N 51°49' E 004°52'0 0.0
2014-Jun-28 01:31N 51°49' E 004°52'0 0.0
2014-Jun-28 00:31N 51°49' E 004°51'0 0.0
2014-Jun-27 23:28N 51°49' E 004°51'0 0.0
2014-Jun-27 22:28N 51°49' E 004°52'0 0.0
2014-Jun-27 21:31N 51°49' E 004°52'0 0.0
2014-Jun-27 20:31N 51°49' E 004°51'0 0.0
2014-Jun-27 19:31N 51°49' E 004°52'0 0.0
2014-Jun-27 18:31N 51°49' E 004°51'0 0.0
2014-Jun-27 17:28N 51°49' E 004°52'0 0.0
2014-Jun-27 16:31N 51°49' E 004°51'0 0.0
2014-Jun-27 15:31N 51°49' E 004°51'0 0.0
2014-Jun-27 14:28N 51°49' E 004°52'0 0.0
2014-Jun-27 13:28N 51°49' E 004°52'0 0.0
2014-Jun-27 12:31N 51°49' E 004°51'0 0.0
2014-Jun-27 11:31N 51°49' E 004°51'0 0.0
2014-Jun-27 10:31N 51°49' E 004°52'0 0.0
2014-Jun-27 09:31N 51°49' E 004°51'0 0.0
2014-Jun-27 08:28N 51°49' E 004°51'0 0.0
2014-Jun-27 07:31N 51°49' E 004°51'0 0.0
2014-Jun-27 06:28N 51°49' E 004°52'0 0.0
2014-Jun-27 05:31N 51°49' E 004°51'0 0.0
2014-Jun-27 04:31N 51°49' E 004°51'0 0.0
2014-Jun-27 03:31N 51°49' E 004°51'0 0.0
2014-Jun-27 02:28N 51°49' E 004°51'0 0.0
2014-Jun-27 01:31N 51°49' E 004°51'0 0.0
2014-Jun-27 00:31N 51°49' E 004°51'0 0.0
2014-Jun-26 23:31N 51°49' E 004°52'0 0.0
2014-Jun-26 22:31N 51°49' E 004°51'0 0.0
2014-Jun-26 21:31N 51°49' E 004°52'0 0.0
2014-Jun-26 20:31N 51°49' E 004°51'0 0.0
2014-Jun-26 19:31N 51°49' E 004°51'0 0.0
2014-Jun-26 18:31N 51°49' E 004°52'0 0.0
2014-Jun-26 17:28N 51°49' E 004°52'0 0.0
2014-Jun-26 16:31N 51°49' E 004°51'0 0.0
2014-Jun-26 15:31N 51°49' E 004°52'0 0.2
2014-Jun-26 14:28N 51°49' E 004°51'  

Dump ship's entire track history